Time;durP1;ratioP1;P1;durP2;ratioP2;P2;SDS_P1;SDS_P2;PMS_P1;PMS_P2;Temp;Humidity;BMP_temperature;BMP_pressure;BME280_temperature;BME280_humidity;BME280_pressure;Samples;Min_cycle;Max_cycle;Signal;HPM_P1;HPM_P2
2022/11/28 00:02:11;;;;;;;9.90;5.80;;;;;;;0.03;100.00;97417.13;105386;1304;22524;-76
2022/11/28 00:04:42;;;;;;;10.30;6.20;;;;;;;0.03;100.00;97417.33;105366;1305;22480;-76
2022/11/28 00:07:16;;;;;;;10.80;6.90;;;;;;;0.04;100.00;97412.43;105299;1304;23826;-76
2022/11/28 00:09:47;;;;;;;9.40;5.50;;;;;;;0.04;100.00;97411.55;105365;1305;22475;-76
2022/11/28 00:12:21;;;;;;;9.30;6.10;;;;;;;0.03;100.00;97411.60;105358;1300;22510;-76
2022/11/28 00:14:52;;;;;;;8.60;5.60;;;;;;;0.05;100.00;97411.95;105437;1302;22577;-76
2022/11/28 00:17:24;;;;;;;11.40;7.80;;;;;;;0.05;100.00;97412.77;105319;1304;27376;-76
2022/11/28 00:19:55;;;;;;;14.20;9.20;;;;;;;0.03;100.00;97411.35;105368;1304;24964;-76
2022/11/28 00:22:28;;;;;;;12.10;8.60;;;;;;;-0.02;100.00;97413.23;105366;1281;22505;-76
2022/11/28 00:24:59;;;;;;;10.60;7.20;;;;;;;-0.05;100.00;97410.69;105380;1296;23801;-75
2022/11/28 00:27:31;;;;;;;8.60;5.50;;;;;;;-0.04;100.00;97412.22;105357;1302;25548;-76
2022/11/28 00:30:02;;;;;;;9.40;5.30;;;;;;;-0.01;100.00;97412.59;105499;1298;22537;-76
2022/11/28 00:32:33;;;;;;;7.60;4.70;;;;;;;0.02;100.00;97412.34;105391;1273;22569;-76
2022/11/28 00:35:04;;;;;;;9.40;6.10;;;;;;;0.01;100.00;97411.35;105319;1305;22974;-76
2022/11/28 00:37:36;;;;;;;9.30;5.30;;;;;;;0.01;100.00;97411.41;105317;1304;22469;-76
2022/11/28 00:40:09;;;;;;;9.90;6.40;;;;;;;-0.03;100.00;97417.59;105369;1304;22702;-76
2022/11/28 00:42:40;;;;;;;12.40;6.90;;;;;;;-0.08;100.00;97414.92;105447;1296;22438;-76
2022/11/28 00:45:12;;;;;;;10.90;6.40;;;;;;;-0.12;100.00;97424.05;105462;1304;22471;-76
2022/11/28 00:47:43;;;;;;;11.40;7.50;;;;;;;-0.14;99.99;97424.31;105433;1280;22424;-76
2022/11/28 00:50:14;;;;;;;12.00;7.60;;;;;;;-0.14;100.00;97424.65;105444;1290;22603;-76
2022/11/28 00:52:48;;;;;;;13.30;8.30;;;;;;;-0.13;100.00;97421.61;105446;1304;22519;-76
2022/11/28 00:55:19;;;;;;;13.00;8.30;;;;;;;-0.11;100.00;97425.10;105378;1304;22848;-76
2022/11/28 00:57:50;;;;;;;11.30;6.90;;;;;;;-0.11;100.00;97421.48;105432;1304;22468;-76
2022/11/28 01:00:23;;;;;;;10.30;7.20;;;;;;;-0.13;100.00;97416.39;105452;1277;24289;-76
2022/11/28 01:02:54;;;;;;;12.80;7.50;;;;;;;-0.11;100.00;97415.04;105464;1290;22507;-76
2022/11/28 01:05:28;;;;;;;10.90;7.00;;;;;;;-0.08;100.00;97417.54;105351;1305;22574;-76
2022/11/28 01:07:59;;;;;;;10.60;6.80;;;;;;;-0.08;100.00;97415.23;105351;1305;22497;-76
2022/11/28 01:10:31;;;;;;;12.00;7.40;;;;;;;-0.11;100.00;97412.83;105461;1295;22453;-76
2022/11/28 01:13:02;;;;;;;12.80;6.80;;;;;;;-0.16;100.00;97411.38;105453;1303;22522;-75
2022/11/28 01:15:33;;;;;;;16.80;10.20;;;;;;;-0.22;100.00;97405.05;105350;1296;22524;-76
2022/11/28 01:18:04;;;;;;;17.80;10.00;;;;;;;-0.26;100.00;97398.38;105344;1299;22548;-76
2022/11/28 01:20:36;;;;;;;11.60;7.30;;;;;;;-0.30;100.00;97395.60;105374;1304;24753;-76
2022/11/28 01:23:07;;;;;;;15.10;8.70;;;;;;;-0.34;100.00;97395.35;105351;1281;22471;-76
2022/11/28 01:25:38;;;;;;;12.90;8.10;;;;;;;-0.35;100.00;97391.33;105320;1305;22688;-76
2022/11/28 01:28:10;;;;;;;17.40;9.90;;;;;;;-0.34;100.00;97391.26;105352;1298;22523;-76
2022/11/28 01:30:41;;;;;;;17.20;11.00;;;;;;;-0.34;100.00;97388.45;105365;1294;22515;-76
2022/11/28 01:33:12;;;;;;;18.60;12.30;;;;;;;-0.32;100.00;97383.29;105390;1290;22543;-76
2022/11/28 01:35:53;;;;;;;19.90;14.00;;;;;;;-0.30;100.00;97383.58;105300;1289;25182;-76
2022/11/28 01:38:25;;;;;;;18.70;13.10;;;;;;;-0.30;100.00;97380.41;105341;1304;22495;-76
2022/11/28 01:40:58;;;;;;;18.00;11.50;;;;;;;-0.27;100.00;97376.16;105323;1305;22494;-76
2022/11/28 01:43:29;;;;;;;16.10;10.40;;;;;;;-0.24;100.00;97377.06;105362;1291;22539;-75
2022/11/28 01:46:00;;;;;;;15.30;10.10;;;;;;;-0.20;100.00;97373.31;105339;1289;22498;-75
2022/11/28 01:48:36;;;;;;;14.80;9.70;;;;;;;-0.19;100.00;97366.18;105320;1305;22479;-76
2022/11/28 01:51:10;;;;;;;13.10;8.70;;;;;;;-0.19;100.00;97361.96;105376;1301;22500;-75
2022/11/28 01:53:48;;;;;;;14.20;7.80;;;;;;;-0.21;100.00;97356.44;104638;1296;23484;-75
2022/11/28 01:56:23;;;;;;;13.50;7.80;;;;;;;-0.22;100.00;97355.66;105399;1291;22688;-76
2022/11/28 01:58:58;;;;;;;12.70;8.80;;;;;;;-0.22;100.00;97357.07;105481;1305;22511;-76
2022/11/28 02:01:30;;;;;;;10.10;5.40;;;;;;;-0.21;100.00;97355.79;105326;1305;22494;-76
2022/11/28 02:04:03;;;;;;;9.20;5.90;;;;;;;-0.21;100.00;97351.21;105359;1298;25390;-75
2022/11/28 02:06:35;;;;;;;10.20;6.20;;;;;;;-0.18;100.00;97348.19;105306;1295;25227;-76
2022/11/28 02:09:09;;;;;;;11.00;6.90;;;;;;;-0.16;100.00;97342.21;105392;1305;22520;-76
2022/11/28 02:12:11;;;;;;;12.50;7.30;;;;;;;-0.15;100.00;97335.10;105387;1303;22529;-76
2022/11/28 02:15:11;;;;;;;13.00;9.00;;;;;;;-0.12;100.00;97332.68;105400;1304;22901;-76
2022/11/28 02:17:51;;;;;;;;;;;;;;;-0.09;100.00;97323.59;105364;1304;22960;-76
2022/11/28 02:21:04;;;;;;;12.40;7.90;;;;;;;-0.07;100.00;97319.19;105343;1303;22527;-76
2022/11/28 02:23:57;;;;;;;12.40;8.30;;;;;;;-0.04;100.00;97313.90;105223;1303;22490;-76
2022/11/28 02:27:05;;;;;;;13.10;8.70;;;;;;;-0.02;100.00;97313.34;105254;1299;22664;-76
2022/11/28 02:30:14;;;;;;;12.60;8.10;;;;;;;-0.02;100.00;97312.98;105216;1305;22601;-76
2022/11/28 02:33:07;;;;;;;11.50;7.50;;;;;;;0.00;100.00;97308.08;105356;1289;22719;-76
2022/11/28 02:35:48;;;;;;;12.70;7.20;;;;;;;0.02;100.00;97314.55;105306;1304;22426;-76
2022/11/28 02:38:28;;;;;;;12.00;7.50;;;;;;;-0.01;100.00;97313.14;105338;1305;22939;-76
2022/11/28 02:41:01;;;;;;;;;;;;;;;-0.04;100.00;97313.41;105401;1280;23175;-76
2022/11/28 02:43:39;;;;;;;14.30;8.20;;;;;;;-0.07;100.00;97311.20;105408;1289;22489;-76
2022/11/28 02:46:17;;;;;;;12.70;7.60;;;;;;;-0.09;100.00;97311.27;105358;1299;22464;-76
2022/11/28 02:48:56;;;;;;;15.30;9.00;;;;;;;-0.11;100.00;97310.31;105347;1304;22470;-76
2022/11/28 02:51:33;;;;;;;13.30;8.60;;;;;;;-0.11;100.00;97308.46;105412;1281;24372;-76
2022/11/28 02:54:06;;;;;;;13.20;9.60;;;;;;;-0.11;100.00;97307.83;105387;1303;23959;-76
2022/11/28 02:56:38;;;;;;;14.60;8.90;;;;;;;-0.09;100.00;97305.79;105320;1291;22522;-76
2022/11/28 02:59:30;;;;;;;15.30;9.10;;;;;;;-0.09;100.00;97301.21;105514;1296;22474;-76
2022/11/28 03:02:03;;;;;;;15.50;10.30;;;;;;;-0.10;100.00;97293.63;105421;1286;22456;-76
2022/11/28 03:04:44;;;;;;;13.90;9.80;;;;;;;-0.10;100.00;97295.08;105457;1301;25374;-76
2022/11/28 03:07:29;;;;;;;13.30;9.20;;;;;;;-0.08;100.00;97298.33;105480;1303;22569;-76
2022/11/28 03:10:21;;;;;;;15.00;9.70;;;;;;;-0.05;100.00;97292.73;105520;1298;22503;-76
2022/11/28 03:13:03;;;;;;;11.70;7.60;;;;;;;-0.02;100.00;97295.09;105381;1305;22515;-76
2022/11/28 03:15:44;;;;;;;13.10;8.60;;;;;;;-0.00;100.00;97291.27;105319;1296;22504;-76
2022/11/28 03:18:23;;;;;;;11.90;7.70;;;;;;;0.02;100.00;97296.38;105385;1286;22630;-76
2022/11/28 03:21:00;;;;;;;11.60;6.80;;;;;;;0.05;100.00;97298.19;105373;1287;22480;-75
2022/11/28 03:23:38;;;;;;;12.50;7.80;;;;;;;0.07;100.00;97297.07;105381;1296;22663;-76
2022/11/28 03:26:16;;;;;;;11.50;7.40;;;;;;;0.12;100.00;97290.06;105361;1304;22509;-76
2022/11/28 03:28:55;;;;;;;12.60;8.30;;;;;;;0.18;100.00;97288.25;105299;1304;23015;-76
2022/11/28 03:31:31;;;;;;;12.20;7.20;;;;;;;0.20;100.00;97288.30;105468;1303;22507;-76
2022/11/28 03:34:04;;;;;;;10.00;6.50;;;;;;;0.22;100.00;97289.30;105364;1289;22477;-76
2022/11/28 03:36:40;;;;;;;12.40;8.20;;;;;;;0.22;100.00;97288.34;105311;1291;24220;-76
2022/11/28 03:39:14;;;;;;;11.90;7.00;;;;;;;0.25;100.00;97284.02;105387;1296;22951;-76
2022/11/28 03:41:50;;;;;;;11.80;6.80;;;;;;;0.27;100.00;97276.71;105383;1290;23791;-75
2022/11/28 03:44:26;;;;;;;10.20;7.20;;;;;;;0.30;100.00;97277.70;105396;1305;22487;-76
2022/11/28 03:47:00;;;;;;;9.30;5.60;;;;;;;0.31;100.00;97276.45;105344;1291;22646;-76
2022/11/28 03:49:36;;;;;;;10.30;7.00;;;;;;;0.33;100.00;97271.56;105385;1300;22509;-76
2022/11/28 03:52:12;;;;;;;11.80;7.20;;;;;;;0.33;100.00;97272.80;105467;1303;22557;-75
2022/11/28 03:54:50;;;;;;;9.90;6.70;;;;;;;0.34;100.00;97272.30;105446;1296;22506;-76
2022/11/28 03:57:29;;;;;;;11.30;6.90;;;;;;;0.34;100.00;97274.54;105311;1296;22554;-76
2022/11/28 04:00:06;;;;;;;11.80;7.30;;;;;;;0.34;100.00;97273.62;105388;1290;23317;-76
2022/11/28 04:02:42;;;;;;;9.80;6.30;;;;;;;0.36;100.00;97272.73;105405;1297;22533;-76
2022/11/28 04:05:21;;;;;;;10.40;6.70;;;;;;;0.38;100.00;97265.27;105334;1299;22479;-76
2022/11/28 04:07:58;;;;;;;8.20;5.30;;;;;;;0.40;100.00;97263.86;105333;1297;22513;-76
2022/11/28 04:10:35;;;;;;;11.00;6.40;;;;;;;0.42;100.00;97263.52;105380;1280;22415;-76
2022/11/28 04:13:14;;;;;;;10.90;6.50;;;;;;;0.43;100.00;97255.98;105360;1281;22509;-76
2022/11/28 04:15:58;;;;;;;9.90;6.30;;;;;;;0.41;100.00;97251.98;105302;1305;22525;-76
2022/11/28 04:18:36;;;;;;;10.70;6.50;;;;;;;0.39;99.93;97246.38;105373;1297;22610;-76
2022/11/28 04:21:14;;;;;;;9.90;6.80;;;;;;;0.39;100.00;97251.64;105410;1303;22470;-76
2022/11/28 04:23:48;;;;;;;10.30;6.90;;;;;;;0.40;99.99;97255.84;105493;1287;22523;-76
2022/11/28 04:26:27;;;;;;;10.50;6.70;;;;;;;0.41;100.00;97250.70;105443;1300;24498;-76
2022/11/28 04:29:01;;;;;;;10.60;6.80;;;;;;;0.39;99.96;97250.02;105473;1304;22546;-76
2022/11/28 04:31:33;;;;;;;10.90;7.00;;;;;;;0.39;100.00;97251.98;105498;1304;22508;-76
2022/11/28 04:34:08;;;;;;;11.40;7.50;;;;;;;0.39;100.00;97252.71;105438;1305;22477;-76
2022/11/28 04:36:43;;;;;;;12.20;7.60;;;;;;;0.39;100.00;97252.71;105322;1304;25378;-76
2022/11/28 04:39:19;;;;;;;11.40;7.10;;;;;;;0.40;100.00;97253.59;105367;1305;22934;-76
2022/11/28 04:41:55;;;;;;;10.50;6.80;;;;;;;0.40;100.00;97248.50;105344;1281;24873;-76
2022/11/28 04:44:31;;;;;;;12.60;7.50;;;;;;;0.42;100.00;97247.54;105339;1281;22488;-76
2022/11/28 04:47:05;;;;;;;11.10;7.50;;;;;;;0.45;99.99;97244.48;105346;1297;22453;-76
2022/11/28 04:49:36;;;;;;;11.70;7.40;;;;;;;0.46;100.00;97243.51;105452;1291;24415;-76
2022/11/28 04:52:09;;;;;;;11.90;8.40;;;;;;;0.47;99.96;97242.70;105499;1304;22467;-76
2022/11/28 04:54:49;;;;;;;12.30;7.90;;;;;;;0.50;99.98;97243.55;105515;1288;22502;-76
2022/11/28 04:57:26;;;;;;;12.60;8.20;;;;;;;0.51;99.95;97244.43;105331;1289;22518;-76
2022/11/28 05:00:04;;;;;;;13.50;8.30;;;;;;;0.53;99.94;97247.11;105376;1305;22604;-76
2022/11/28 05:02:37;;;;;;;11.90;7.80;;;;;;;0.53;99.88;97243.79;105355;1304;22638;-76
2022/11/28 05:05:13;;;;;;;12.80;8.30;;;;;;;0.51;100.00;97240.77;105338;1305;22569;-76
2022/11/28 05:07:45;;;;;;;14.60;8.50;;;;;;;0.52;99.98;97242.11;105345;1302;22477;-76
2022/11/28 05:10:17;;;;;;;14.10;8.70;;;;;;;0.53;99.93;97245.27;105354;1281;23990;-76
2022/11/28 05:12:48;;;;;;;14.30;9.60;;;;;;;0.53;99.75;97241.30;105363;1303;23908;-76
2022/11/28 05:15:19;;;;;;;14.80;9.10;;;;;;;0.53;99.93;97239.02;105368;1293;23413;-76
2022/11/28 05:17:51;;;;;;;14.20;9.40;;;;;;;0.53;99.88;97241.22;105365;1305;22448;-76
2022/11/28 05:20:22;;;;;;;12.80;9.30;;;;;;;0.54;99.87;97239.34;105360;1304;22484;-76
2022/11/28 05:22:54;;;;;;;13.70;8.80;;;;;;;0.53;99.84;97239.53;105355;1289;22475;-76
2022/11/28 05:25:25;;;;;;;12.80;8.70;;;;;;;0.49;99.73;97234.11;105431;1303;23494;-76
2022/11/28 05:27:56;;;;;;;11.90;8.00;;;;;;;0.51;99.85;97236.29;105469;1295;22497;-76
2022/11/28 05:30:27;;;;;;;12.60;8.00;;;;;;;0.51;99.77;97237.36;105401;1300;22534;-76
2022/11/28 05:32:59;;;;;;;11.90;7.10;;;;;;;0.49;99.83;97237.41;105379;1305;22863;-76
2022/11/28 05:35:31;;;;;;;12.70;8.70;;;;;;;0.48;99.79;97238.21;105322;1296;23255;-76
2022/11/28 05:38:04;;;;;;;12.10;8.00;;;;;;;0.51;99.73;97238.21;105420;1297;22865;-76
2022/11/28 05:40:42;;;;;;;12.20;8.00;;;;;;;0.54;99.75;97239.01;105484;1280;22473;-76
2022/11/28 05:43:13;;;;;;;14.40;9.70;;;;;;;0.55;99.78;97237.44;105459;1304;22481;-76
2022/11/28 05:45:46;;;;;;;15.10;9.90;;;;;;;0.55;99.44;97235.43;105495;1296;22495;-76
2022/11/28 05:48:17;;;;;;;14.40;10.70;;;;;;;0.52;99.60;97227.98;105345;1305;23888;-76
2022/11/28 05:50:50;;;;;;;16.10;10.80;;;;;;;0.50;99.56;97230.55;105447;1304;22439;-76
2022/11/28 05:53:21;;;;;;;15.70;10.70;;;;;;;0.48;99.70;97229.70;105506;1304;22477;-76
2022/11/28 05:55:52;;;;;;;17.00;11.00;;;;;;;0.47;99.82;97229.23;105388;1304;22612;-76
2022/11/28 05:58:25;;;;;;;16.90;13.50;;;;;;;0.47;99.60;97225.58;105466;1304;22473;-76
2022/11/28 06:00:57;;;;;;;18.60;11.50;;;;;;;0.44;99.66;97224.56;105394;1287;22484;-76
2022/11/28 06:03:28;;;;;;;14.60;9.70;;;;;;;0.42;99.84;97226.67;105390;1291;22466;-76
2022/11/28 06:05:59;;;;;;;12.30;8.10;;;;;;;0.43;99.84;97230.34;105313;1299;22483;-76
2022/11/28 06:08:31;;;;;;;12.70;8.00;;;;;;;0.47;99.84;97227.62;105400;1283;22466;-76
2022/11/28 06:11:02;;;;;;;10.30;6.70;;;;;;;0.51;99.75;97226.42;105372;1281;22515;-76
2022/11/28 06:13:35;;;;;;;12.30;8.30;;;;;;;0.53;99.86;97227.25;105493;1303;23332;-76
2022/11/28 06:16:11;;;;;;;11.00;7.10;;;;;;;0.55;99.60;97222.92;105367;1296;22483;-76
2022/11/28 06:18:45;;;;;;;11.00;7.00;;;;;;;0.56;99.48;97228.02;105396;1290;22474;-76
2022/11/28 06:21:17;;;;;;;10.50;6.60;;;;;;;0.57;99.41;97228.04;105382;1305;23750;-76
2022/11/28 06:23:48;;;;;;;11.90;7.40;;;;;;;0.58;99.38;97223.02;105493;1305;22481;-76
2022/11/28 06:26:22;;;;;;;12.30;7.50;;;;;;;0.57;99.31;97225.02;105463;1304;24270;-76
2022/11/28 06:28:55;;;;;;;11.60;7.60;;;;;;;0.59;99.34;97225.15;105454;1302;22484;-76
2022/11/28 06:31:28;;;;;;;10.90;7.10;;;;;;;0.62;99.25;97226.99;105479;1297;22574;-76
2022/11/28 06:34:00;;;;;;;10.70;7.10;;;;;;;0.63;99.33;97225.59;105392;1290;22556;-76
2022/11/28 06:36:32;;;;;;;11.00;7.30;;;;;;;0.62;99.37;97223.14;105330;1305;22659;-76
2022/11/28 06:39:04;;;;;;;13.60;8.10;;;;;;;0.62;99.22;97228.36;105404;1287;22511;-76
2022/11/28 06:41:35;;;;;;;14.80;9.90;;;;;;;0.60;99.01;97227.84;105357;1290;22873;-76
2022/11/28 06:44:06;;;;;;;17.90;12.00;;;;;;;0.59;99.56;97224.67;105427;1291;22494;-76
2022/11/28 06:46:38;;;;;;;19.90;11.70;;;;;;;0.53;99.42;97232.14;105313;1299;25940;-77
2022/11/28 06:49:10;;;;;;;31.40;20.00;;;;;;;0.47;99.81;97233.55;105403;1297;22469;-77
2022/11/28 06:51:44;;;;;;;25.30;14.70;;;;;;;0.46;99.90;97235.29;105375;1305;25924;-77
2022/11/28 06:54:16;;;;;;;19.10;11.20;;;;;;;0.45;99.92;97235.85;105394;1296;22496;-77
2022/11/28 06:56:49;;;;;;;16.00;10.50;;;;;;;0.47;100.00;97234.29;105346;1305;22521;-75
2022/11/28 06:59:21;;;;;;;16.30;11.00;;;;;;;0.50;99.97;97230.79;105431;1297;22522;-75
2022/11/28 07:01:54;;;;;;;17.90;12.60;;;;;;;0.51;99.96;97232.63;105516;1288;22471;-75
2022/11/28 07:04:26;;;;;;;20.10;13.30;;;;;;;0.47;99.87;97228.62;105401;1304;22456;-75
2022/11/28 07:06:57;;;;;;;22.70;15.60;;;;;;;0.43;99.93;97230.95;105333;1302;22602;-75
2022/11/28 07:09:29;;;;;;;21.20;14.90;;;;;;;0.39;99.74;97232.69;105595;1302;22487;-75
2022/11/28 07:12:01;;;;;;;21.90;13.70;;;;;;;0.38;99.91;97231.60;105382;1297;22513;-75
2022/11/28 07:14:34;;;;;;;19.70;14.10;;;;;;;0.39;99.98;97233.54;105355;1291;22501;-75
2022/11/28 07:17:05;;;;;;;21.00;14.10;;;;;;;0.39;99.94;97234.21;105304;1305;24485;-75
2022/11/28 07:19:37;;;;;;;17.60;12.70;;;;;;;0.38;99.89;97231.24;105386;1290;23286;-75
2022/11/28 07:22:09;;;;;;;18.30;13.00;;;;;;;0.35;99.89;97231.61;105463;1302;22894;-75
2022/11/28 07:24:40;;;;;;;19.00;13.20;;;;;;;0.35;99.94;97232.69;105523;1297;24333;-75
2022/11/28 07:27:12;;;;;;;19.10;13.20;;;;;;;0.36;99.93;97231.16;105330;1305;22737;-75
2022/11/28 07:29:43;;;;;;;20.20;13.70;;;;;;;0.37;100.00;97229.08;105400;1304;22897;-75
2022/11/28 07:32:15;;;;;;;19.30;12.80;;;;;;;0.39;99.95;97226.87;105408;1305;24312;-75
2022/11/28 07:34:47;;;;;;;22.40;14.30;;;;;;;0.46;100.00;97226.89;105362;1297;22588;-75
2022/11/28 07:37:19;;;;;;;17.20;13.40;;;;;;;0.56;100.00;97221.60;105286;1281;24648;-75
2022/11/28 07:39:50;;;;;;;19.30;13.40;;;;;;;0.63;100.00;97220.85;105440;1305;22469;-76
2022/11/28 07:42:21;;;;;;;15.50;12.20;;;;;;;0.68;99.99;97220.80;105501;1282;22503;-76
2022/11/28 07:44:53;;;;;;;16.80;12.80;;;;;;;0.70;99.99;97221.13;105511;1304;22990;-76
2022/11/28 07:47:25;;;;;;;17.90;13.10;;;;;;;0.76;100.00;97223.46;105357;1288;23269;-76
2022/11/28 07:49:56;;;;;;;18.90;12.70;;;;;;;0.84;100.00;97222.41;105489;1280;22481;-76
2022/11/28 07:52:28;;;;;;;19.50;13.30;;;;;;;0.88;100.00;97219.49;105391;1298;25945;-76
2022/11/28 07:54:59;;;;;;;20.00;14.70;;;;;;;0.94;100.00;97219.04;105443;1297;25683;-76
2022/11/28 07:57:31;;;;;;;21.20;16.10;;;;;;;1.00;100.00;97217.71;105343;1305;22449;-76
2022/11/28 08:00:03;;;;;;;22.40;16.20;;;;;;;1.07;100.00;97217.77;105365;1304;22517;-76
2022/11/28 08:02:34;;;;;;;21.30;15.80;;;;;;;1.17;100.00;97217.02;105378;1291;22811;-76
2022/11/28 08:05:07;;;;;;;20.40;15.70;;;;;;;1.25;100.00;97220.31;105417;1302;22384;-77
2022/11/28 08:07:38;;;;;;;17.60;13.50;;;;;;;1.31;100.00;97223.22;105447;1296;23152;-76
2022/11/28 08:10:11;;;;;;;20.00;14.70;;;;;;;1.35;100.00;97219.46;105381;1298;22472;-76
2022/11/28 08:12:42;;;;;;;16.70;12.60;;;;;;;1.40;100.00;97218.08;105500;1296;22485;-77
2022/11/28 08:15:14;;;;;;;16.60;11.60;;;;;;;1.44;100.00;97215.88;105487;1305;22623;-76
2022/11/28 08:17:46;;;;;;;18.40;11.50;;;;;;;1.48;99.96;97217.74;105441;1305;22611;-76
2022/11/28 08:20:17;;;;;;;17.10;12.30;;;;;;;1.53;99.94;97216.44;105425;1284;22480;-76
2022/11/28 08:22:48;;;;;;;16.10;12.40;;;;;;;1.63;100.00;97220.02;105476;1302;22424;-76
2022/11/28 08:25:20;;;;;;;14.10;10.90;;;;;;;1.72;100.00;97221.94;105528;1303;23860;-76
2022/11/28 08:27:53;;;;;;;17.80;12.40;;;;;;;1.77;100.00;97219.38;105475;1297;22526;-76
2022/11/28 08:30:24;;;;;;;17.50;12.30;;;;;;;1.83;100.00;97221.80;105425;1299;22495;-76
2022/11/28 08:32:59;;;;;;;15.90;11.00;;;;;;;1.88;100.00;97222.96;105405;1290;22487;-76
2022/11/28 08:35:32;;;;;;;16.50;11.60;;;;;;;1.90;99.61;97224.80;105370;1277;23258;-77
2022/11/28 08:38:06;;;;;;;16.80;12.50;;;;;;;1.92;99.41;97221.89;105371;1304;22682;-76
2022/11/28 08:40:39;;;;;;;16.50;11.80;;;;;;;1.95;99.13;97222.67;105392;1288;22460;-76
2022/11/28 08:43:11;;;;;;;16.80;12.00;;;;;;;1.98;99.04;97224.60;105372;1303;22468;-76
2022/11/28 08:45:42;;;;;;;17.00;11.20;;;;;;;2.03;99.05;97221.32;105358;1304;22484;-76
2022/11/28 08:48:14;;;;;;;17.40;12.40;;;;;;;2.02;98.92;97222.09;105362;1305;23282;-76
2022/11/28 08:50:49;;;;;;;17.20;12.20;;;;;;;2.06;98.94;97224.11;105360;1304;25379;-76
2022/11/28 08:53:20;;;;;;;18.90;12.30;;;;;;;2.20;99.24;97222.28;105377;1305;22657;-76
2022/11/28 08:55:52;;;;;;;18.70;13.50;;;;;;;2.42;99.52;97222.39;105410;1304;22541;-76
2022/11/28 08:58:23;;;;;;;17.20;13.20;;;;;;;2.74;99.84;97214.75;105429;1290;22476;-76
2022/11/28 09:00:58;;;;;;;17.10;12.40;;;;;;;3.18;100.00;97210.23;105406;1303;22538;-77
2022/11/28 09:03:29;;;;;;;15.50;10.50;;;;;;;3.63;99.97;97204.11;105387;1294;22494;-76
2022/11/28 09:06:06;;;;;;;13.60;10.00;;;;;;;3.97;98.59;97202.90;105439;1288;22528;-77
2022/11/28 09:08:37;;;;;;;12.70;8.80;;;;;;;4.08;95.70;97200.83;105366;1304;22663;-77
2022/11/28 09:11:11;;;;;;;12.50;8.50;;;;;;;4.09;94.85;97197.30;105506;1301;22517;-77
2022/11/28 09:13:42;;;;;;;11.00;7.80;;;;;;;4.13;94.91;97193.90;105539;1303;22467;-77
2022/11/28 09:16:17;;;;;;;12.00;8.50;;;;;;;4.24;95.25;97184.84;105463;1297;25375;-77
2022/11/28 09:18:48;;;;;;;12.20;8.80;;;;;;;4.24;94.48;97180.43;105429;1303;22542;-77
2022/11/28 09:21:24;;;;;;;12.70;9.00;;;;;;;4.30;94.58;97181.31;105388;1302;22598;-77
2022/11/28 09:23:56;;;;;;;11.70;9.10;;;;;;;4.37;94.32;97174.42;105396;1305;22825;-77
2022/11/28 09:26:28;;;;;;;10.80;7.50;;;;;;;4.38;93.08;97169.98;105314;1291;24355;-77
2022/11/28 09:29:00;;;;;;;10.10;6.70;;;;;;;4.45;93.05;97160.16;105388;1277;22429;-77
2022/11/28 09:31:32;;;;;;;10.20;6.90;;;;;;;4.55;92.52;97155.59;105395;1303;24262;-77
2022/11/28 09:34:03;;;;;;;9.80;6.60;;;;;;;4.57;92.01;97153.95;105310;1305;22445;-77
2022/11/28 09:36:35;;;;;;;9.10;6.10;;;;;;;4.59;91.56;97154.69;105323;1297;22504;-77
2022/11/28 09:39:06;;;;;;;9.60;6.30;;;;;;;4.66;91.22;97148.93;105350;1297;22946;-77
2022/11/28 09:41:50;;;;;;;6.60;4.90;;;;;;;4.69;90.40;97146.26;105367;1296;22472;-77
2022/11/28 09:44:25;;;;;;;7.20;5.30;;;;;;;4.71;89.31;97144.27;105329;1290;22605;-77
2022/11/28 09:47:00;;;;;;;9.50;6.00;;;;;;;4.80;89.63;97145.77;105323;1298;22613;-77
2022/11/28 09:49:41;;;;;;;6.70;4.00;;;;;;;4.94;87.73;97143.98;105394;1294;22480;-77
2022/11/28 09:52:25;;;;;;;4.30;3.50;;;;;;;4.70;83.45;97144.38;105390;1304;24329;-77
2022/11/28 09:55:06;;;;;;;4.10;3.20;;;;;;;4.56;83.33;97142.64;105449;1304;24548;-77
2022/11/28 09:57:40;;;;;;;6.80;4.20;;;;;;;4.56;84.33;97141.23;105347;1295;22442;-77
2022/11/28 10:00:21;;;;;;;5.70;3.90;;;;;;;4.71;84.18;97136.80;105504;1281;23806;-77
2022/11/28 10:03:10;;;;;;;5.80;2.90;;;;;;;4.63;80.13;97135.98;105417;1288;22527;-77
2022/11/28 10:05:53;;;;;;;4.80;3.10;;;;;;;4.50;81.38;97133.63;105347;1287;22457;-77
2022/11/28 10:08:37;;;;;;;3.80;2.70;;;;;;;4.65;81.55;97132.11;105355;1303;22465;-78
2022/11/28 10:11:19;;;;;;;4.00;3.00;;;;;;;4.62;79.32;97131.50;105377;1304;23841;-77
2022/11/28 10:13:58;;;;;;;6.40;3.20;;;;;;;4.59;78.67;97129.68;105460;1288;22559;-77
2022/11/28 10:16:41;;;;;;;4.80;2.90;;;;;;;4.51;76.87;97128.28;105331;1305;22528;-77
2022/11/28 10:19:16;;;;;;;4.90;3.30;;;;;;;4.42;76.94;97129.23;105400;1303;24257;-78
2022/11/28 10:21:54;;;;;;;4.10;3.00;;;;;;;4.42;75.97;97131.91;105387;1291;22836;-78
2022/11/28 10:24:34;;;;;;;4.50;3.20;;;;;;;4.45;77.42;97126.40;105479;1280;22469;-78
2022/11/28 10:27:12;;;;;;;5.50;3.30;;;;;;;4.48;76.10;97122.02;105447;1302;34851;-77
2022/11/28 10:29:50;;;;;;;4.20;2.90;;;;;;;4.50;76.46;97118.33;105394;1297;22624;-77
2022/11/28 10:32:34;;;;;;;4.30;3.10;;;;;;;4.59;77.37;97119.18;105382;1304;22469;-78
2022/11/28 10:35:13;;;;;;;4.50;3.30;;;;;;;4.41;76.50;97116.04;105328;1291;22476;-77
2022/11/28 10:37:44;;;;;;;4.10;2.90;;;;;;;4.17;76.42;97115.40;105345;1305;24258;-77
2022/11/28 10:40:23;;;;;;;4.70;3.20;;;;;;;4.12;76.31;97115.12;105370;1304;22475;-77
2022/11/28 10:43:01;;;;;;;5.40;3.60;;;;;;;4.20;76.49;97109.73;105377;1303;22550;-77
2022/11/28 10:45:42;;;;;;;5.20;3.20;;;;;;;4.36;77.70;97107.92;105315;1282;22460;-77
2022/11/28 10:48:36;;;;;;;4.80;3.20;;;;;;;4.59;78.07;97110.15;105341;1302;23491;-77
2022/11/28 10:51:22;;;;;;;5.10;3.60;;;;;;;4.70;76.88;97102.15;105493;1301;22470;-77
2022/11/28 10:54:04;;;;;;;6.90;3.50;;;;;;;4.64;75.99;97095.71;105384;1304;22562;-77
2022/11/28 10:56:47;;;;;;;3.80;3.00;;;;;;;4.64;76.40;97094.87;105344;1281;22504;-77
2022/11/28 10:59:28;;;;;;;4.80;3.00;;;;;;;4.75;76.08;97093.45;105361;1286;22483;-78
2022/11/28 11:02:04;;;;;;;4.50;3.20;;;;;;;4.77;75.03;97092.95;105358;1304;22476;-77
2022/11/28 11:04:37;;;;;;;4.40;3.50;;;;;;;4.81;76.03;97090.05;105379;1304;22502;-78
2022/11/28 11:07:15;;;;;;;4.50;3.10;;;;;;;4.91;75.81;97093.70;105334;1304;22484;-77
2022/11/28 11:09:46;;;;;;;5.00;3.40;;;;;;;5.02;75.72;97087.44;105330;1305;22462;-77
2022/11/28 11:12:26;;;;;;;3.90;3.00;;;;;;;5.06;75.62;97091.37;105339;1289;22476;-77
2022/11/28 11:14:57;;;;;;;4.70;3.30;;;;;;;5.15;75.24;97083.84;105369;1290;22482;-77
2022/11/28 11:17:33;;;;;;;4.80;3.40;;;;;;;5.26;75.32;97081.13;105364;1301;22512;-77
2022/11/28 11:20:18;;;;;;;5.50;3.00;;;;;;;5.40;75.62;97078.77;105391;1279;22628;-77
2022/11/28 11:22:58;;;;;;;4.60;3.30;;;;;;;5.61;76.00;97082.80;105382;1297;22456;-77
2022/11/28 11:25:31;;;;;;;5.40;3.50;;;;;;;5.72;75.30;97079.27;105382;1303;22537;-77
2022/11/28 11:28:04;;;;;;;5.50;3.80;;;;;;;5.64;73.91;97078.11;105363;1304;22545;-77
2022/11/28 11:30:37;;;;;;;6.00;3.80;;;;;;;5.61;73.99;97078.27;105360;1293;22982;-77
2022/11/28 11:33:17;;;;;;;4.30;3.00;;;;;;;5.57;73.74;97079.52;105477;1301;22598;-77
2022/11/28 11:35:49;;;;;;;5.10;3.50;;;;;;;5.45;72.48;97073.14;105307;1305;22688;-78
2022/11/28 11:38:29;;;;;;;5.30;3.50;;;;;;;5.42;72.76;97074.45;105397;1296;22545;-77
2022/11/28 11:41:27;;;;;;;5.80;4.10;;;;;;;5.39;72.83;97071.04;105354;1305;22482;-78
2022/11/28 11:44:32;;;;;;;5.30;3.70;;;;;;;5.39;72.27;97074.23;105344;1284;22462;-78
2022/11/28 11:47:07;;;;;;;5.20;3.30;;;;;;;5.46;72.16;97075.24;105348;1305;22819;-77
2022/11/28 11:49:42;;;;;;;4.00;2.80;;;;;;;5.43;72.46;97073.37;105401;1302;25463;-77
2022/11/28 11:52:24;;;;;;;3.80;3.00;;;;;;;5.46;71.73;97072.62;105341;1306;22508;-77
2022/11/28 11:55:11;;;;;;;4.90;3.30;;;;;;;5.48;72.49;97074.30;105494;1297;25380;-77
2022/11/28 11:57:48;;;;;;;3.70;3.00;;;;;;;5.63;72.78;97070.64;105328;1287;22489;-77